Time;durP1;ratioP1;P1;durP2;ratioP2;P2;SDS_P1;SDS_P2;PMS_P1;PMS_P2;Temp;Humidity;BMP_temperature;BMP_pressure;BME280_temperature;BME280_humidity;BME280_pressure;Samples;Min_cycle;Max_cycle;Signal;HPM_P1;HPM_P2
2022/08/11 00:00:05;;;;;;;;;15.50;15.00;;;;;25.73;34.38;101228.97;5098387;27;45385;-62
2022/08/11 00:02:42;;;;;;;;;13.75;13.75;;;;;25.69;34.00;101224.88;5063533;28;45453;-63
2022/08/11 00:05:13;;;;;;;;;13.25;13.25;;;;;25.69;34.46;101224.03;5092740;27;45530;-61
2022/08/11 00:07:51;;;;;;;;;14.67;14.67;;;;;25.65;34.01;101218.00;5098870;27;45235;-61
2022/08/11 00:10:20;;;;;;;;;15.00;15.00;;;;;25.64;34.37;101224.47;5098782;27;45530;-62
2022/08/11 00:12:52;;;;;;;;;16.00;15.50;;;;;25.62;34.84;101221.09;5097249;27;45245;-60
2022/08/11 00:15:17;;;;;;;;;14.75;13.00;;;;;25.60;34.15;101225.84;5098494;27;45405;-60
2022/08/11 00:17:44;;;;;;;;;13.00;12.67;;;;;25.54;34.47;101223.81;5097641;27;45366;-62
2022/08/11 00:20:15;;;;;;;;;12.75;12.75;;;;;25.53;34.45;101224.84;5098845;27;45245;-60
2022/08/11 00:22:44;;;;;;;;;17.00;15.00;;;;;25.53;34.65;101228.41;5080442;27;45582;-60
2022/08/11 00:25:18;;;;;;;;;13.50;13.50;;;;;25.49;34.66;101226.16;5079760;27;46156;-60
2022/08/11 00:27:46;;;;;;;;;14.00;13.00;;;;;25.46;34.53;101218.34;5098447;27;45494;-59
2022/08/11 00:30:13;;;;;;;;;16.33;13.33;;;;;25.43;34.63;101222.25;5097605;27;45536;-60
2022/08/11 00:32:42;;;;;;;;;13.25;12.75;;;;;25.36;34.46;101220.34;5097649;27;45145;-59
2022/08/11 00:35:12;;;;;;;;;14.67;14.33;;;;;25.38;34.84;101229.22;5059060;28;46421;-60
2022/08/11 00:37:38;;;;;;;;;17.00;17.00;;;;;25.36;34.87;101228.53;5087788;27;45284;-60
2022/08/11 00:40:14;;;;;;;;;18.67;17.33;;;;;25.34;34.89;101222.41;5098272;27;45271;-58
2022/08/11 00:42:53;;;;;;;;;17.25;16.50;;;;;25.31;34.86;101223.59;5098327;27;45298;-62
2022/08/11 00:45:39;;;;;;;;;19.33;16.67;;;;;25.25;35.24;101222.38;5097904;27;46322;-60
2022/08/11 00:48:27;;;;;;;;;12.75;12.50;;;;;25.23;35.05;101227.13;5097055;27;45307;-62
2022/08/11 00:51:19;;;;;;;;;13.75;13.75;;;;;25.19;35.20;101220.31;5098050;27;45287;-64
2022/08/11 00:54:22;;;;;;;;;16.50;13.25;;;;;25.16;35.33;101231.53;5098439;27;45256;-62
2022/08/11 00:57:09;;;;;;;;;15.50;14.75;;;;;25.12;35.47;101230.16;5097902;27;45398;-65
2022/08/11 00:59:34;;;;;;;;;15.50;12.50;;;;;25.08;35.79;101228.78;5097925;27;45383;-62
2022/08/11 01:02:43;;;;;;;;;14.33;14.00;;;;;25.03;35.64;101231.16;5096941;27;45327;-61
2022/08/11 01:05:47;;;;;;;;;13.50;11.50;;;;;24.97;35.90;101229.03;5075758;27;45404;-64
2022/08/11 01:09:03;;;;;;;;;14.75;14.75;;;;;24.93;35.89;101225.81;5097738;27;46129;-64
2022/08/11 01:11:37;;;;;;;;;9.75;9.75;;;;;24.90;36.19;101230.75;5063266;27;45380;-60
2022/08/11 01:14:30;;;;;;;;;16.33;14.00;;;;;24.87;36.21;101231.03;5097676;27;45220;-60
2022/08/11 01:17:36;;;;;;;;;14.67;14.00;;;;;24.83;36.23;101230.53;5097310;27;45591;-62
2022/08/11 01:20:23;;;;;;;;;9.50;9.50;;;;;24.78;35.89;101221.16;5058192;27;45409;-64
2022/08/11 01:23:03;;;;;;;;;12.00;10.50;;;;;24.75;36.07;101221.50;5097503;27;45295;-64
2022/08/11 01:25:47;;;;;;;;;12.75;12.75;;;;;24.73;36.36;101218.06;5098165;27;45402;-63
2022/08/11 01:28:34;;;;;;;;;13.67;13.33;;;;;24.68;35.75;101222.13;5097830;27;45356;-60
2022/08/11 01:31:37;;;;;;;;;14.67;12.67;;;;;24.65;35.93;101213.44;5097046;27;45565;-64
2022/08/11 01:34:26;;;;;;;;;15.75;11.50;;;;;24.63;36.31;101212.75;5097610;27;45531;-64
2022/08/11 01:37:21;;;;;;;;;11.67;11.67;;;;;24.59;36.14;101223.09;5093551;27;45429;-63
2022/08/11 01:40:31;;;;;;;;;14.67;14.67;;;;;24.53;36.05;101209.31;5077321;28;45371;-60
2022/08/11 01:46:20;;;;;;;;;10.67;9.67;;;;;24.52;36.17;101226.63;5079228;27;45522;-61
2022/08/11 01:49:03;;;;;;;;;12.67;11.00;;;;;24.44;36.34;101218.41;5078830;27;45390;-64
2022/08/11 01:51:48;;;;;;;;;13.00;11.25;;;;;24.43;36.26;101223.00;5096639;27;45673;-63
2022/08/11 01:54:40;;;;;;;;;15.00;15.00;;;;;24.37;36.78;101226.38;5095525;27;46216;-62
2022/08/11 01:57:24;;;;;;;;;13.00;13.00;;;;;24.35;36.68;101225.66;5096076;27;45253;-62
2022/08/11 02:00:01;;;;;;;;;12.00;12.00;;;;;24.31;36.88;101230.56;5096950;27;45487;-61
2022/08/11 02:02:44;;;;;;;;;12.00;10.00;;;;;24.29;37.23;101220.84;5097042;27;45396;-61
2022/08/11 02:05:34;;;;;;;;;15.33;13.33;;;;;24.25;36.88;101231.19;5096703;27;46107;-60
2022/08/11 02:08:08;;;;;;;;;13.00;12.33;;;;;24.21;37.24;101227.06;5097388;27;45418;-59
2022/08/11 02:13:52;;;;;;;;;14.33;14.33;;;;;24.06;36.68;101215.06;5096907;27;45406;-64
2022/08/11 02:16:32;;;;;;;;;14.33;12.67;;;;;24.04;37.18;101223.38;5094652;27;45554;-64
2022/08/11 02:24:59;;;;;;;;;15.33;14.33;;;;;23.93;37.18;101220.06;5096964;27;45323;-62
2022/08/11 02:27:40;;;;;;;;;11.67;11.67;;;;;23.88;37.39;101223.25;5095608;27;45470;-64
2022/08/11 02:30:12;;;;;;;;;13.33;13.33;;;;;23.79;37.52;101218.75;5096220;27;45310;-61
2022/08/11 02:33:23;;;;;;;;;13.50;13.25;;;;;23.76;37.77;101230.78;5096597;27;45304;-61
2022/08/11 02:36:04;;;;;;;;;13.00;12.00;;;;;23.72;37.37;101231.25;5059037;27;45404;-59
2022/08/11 02:38:48;;;;;;;;;13.00;11.33;;;;;23.69;37.61;101228.84;5078798;27;45619;-62
2022/08/11 02:44:28;;;;;;;;;13.67;11.00;;;;;23.65;37.34;101220.16;5096821;27;45357;-61
2022/08/11 02:47:31;;;;;;;;;13.00;12.00;;;;;23.66;37.38;101219.16;5096888;27;45313;-61
2022/08/11 02:50:12;;;;;;;;;13.67;10.00;;;;;23.63;37.23;101224.03;5096088;27;45409;-61
2022/08/11 02:52:57;;;;;;;;;12.00;10.00;;;;;23.59;37.81;101222.66;5095339;27;45265;-60
2022/08/11 02:55:34;;;;;;;;;14.00;12.33;;;;;23.57;37.63;101224.63;5096630;27;45400;-60
2022/08/11 02:58:13;;;;;;;;;12.00;12.00;;;;;23.54;37.75;101223.06;5095392;27;45255;-63
2022/08/11 03:01:01;;;;;;;;;14.00;12.67;;;;;23.51;37.82;101224.22;5095990;27;47304;-63
2022/08/11 03:03:37;;;;;;;;;10.67;10.67;;;;;23.50;37.84;101227.09;5094039;27;45436;-62
2022/08/11 03:06:18;;;;;;;;;9.00;8.00;;;;;23.47;37.97;101222.00;5096224;27;45238;-64
2022/08/11 03:08:57;;;;;;;;;11.00;11.00;;;;;23.44;38.03;101225.88;5096046;27;45412;-62
2022/08/11 03:17:31;;;;;;;;;10.00;10.00;;;;;23.29;37.89;101226.53;5096135;27;45420;-61
2022/08/11 03:20:02;;;;;;;;;15.00;13.00;;;;;23.28;37.80;101220.25;5095020;27;45299;-62
2022/08/11 03:22:27;;;;;;;;;12.67;11.00;;;;;23.27;37.92;101221.25;5095917;27;45452;-64
2022/08/11 03:25:07;;;;;;;;;14.00;14.00;;;;;23.26;37.70;101222.28;5098187;27;45439;-61
2022/08/11 03:27:44;;;;;;;;;13.00;13.00;;;;;23.23;37.82;101219.88;5098771;27;45341;-62
2022/08/11 03:30:18;;;;;;;;;18.00;15.33;;;;;23.22;37.55;101220.88;5099159;27;45499;-61
2022/08/11 03:36:21;;;;;;;;;12.67;11.67;;;;;23.13;37.77;101224.50;5099238;27;45353;-63
2022/08/11 03:38:47;;;;;;;;;13.33;11.33;;;;;23.11;38.09;101221.09;5078972;27;45443;-62
2022/08/11 03:41:46;;;;;;;;;11.67;10.67;;;;;23.07;37.82;101216.97;5082730;27;45595;-62
2022/08/11 03:44:22;;;;;;;;;13.33;13.00;;;;;23.03;38.02;101219.13;5099049;27;45320;-61
2022/08/11 03:47:06;;;;;;;;;14.00;14.00;;;;;23.02;38.41;101213.84;5099249;27;45202;-62
2022/08/11 03:49:53;;;;;;;;;14.00;12.00;;;;;23.00;37.77;101221.28;5099091;27;45366;-60
2022/08/11 03:52:37;;;;;;;;;14.33;11.33;;;;;22.98;38.21;101223.31;5080851;27;45278;-60
2022/08/11 03:55:23;;;;;;;;;9.00;9.00;;;;;22.97;37.84;101224.31;5097659;27;46508;-59
2022/08/11 03:57:58;;;;;;;;;11.67;11.67;;;;;22.95;38.26;101229.88;5074600;27;45394;-59
2022/08/11 04:00:42;;;;;;;;;12.33;12.33;;;;;22.91;38.40;101223.03;5096162;27;45306;-62
2022/08/11 04:03:26;;;;;;;;;12.67;12.67;;;;;22.89;38.15;101223.19;5099461;27;45168;-59
2022/08/11 04:06:24;;;;;;;;;15.67;15.00;;;;;22.88;38.60;101212.50;5097865;27;45211;-62
2022/08/11 04:09:04;;;;;;;;;11.33;11.33;;;;;22.82;38.35;101207.66;5080059;27;45322;-64
2022/08/11 04:12:16;;;;;;;;;13.67;13.67;;;;;22.73;38.31;101209.41;5097290;27;45352;-59
2022/08/11 04:18:43;;;;;;;;;13.00;11.00;;;;;22.72;38.70;101217.69;5064022;27;45803;-64
2022/08/11 04:21:50;;;;;;;;;14.33;12.67;;;;;22.69;38.84;101218.84;5098883;27;45303;-62
2022/08/11 04:24:35;;;;;;;;;12.33;10.67;;;;;22.67;39.24;101220.84;5098966;27;45523;-58
2022/08/11 04:27:03;;;;;;;;;12.00;12.00;;;;;22.65;39.07;101222.84;5099164;27;45406;-61
2022/08/11 04:29:40;;;;;;;;;11.67;11.67;;;;;22.61;39.12;101213.31;5098743;27;46133;-60
2022/08/11 04:32:39;;;;;;;;;11.67;11.33;;;;;22.62;39.15;101218.56;5098386;27;45318;-61
2022/08/11 04:35:42;;;;;;;;;14.33;13.67;;;;;22.61;39.23;101226.84;5098099;27;45236;-62
2022/08/11 04:38:26;;;;;;;;;15.00;11.00;;;;;22.61;38.74;101222.28;5084020;27;45242;-61
2022/08/11 04:41:31;;;;;;;;;13.67;12.33;;;;;22.62;38.93;101224.00;5077919;28;46078;-63
2022/08/11 04:44:25;;;;;;;;;11.67;11.67;;;;;22.60;39.33;101220.59;5077935;28;45227;-63
2022/08/11 04:47:06;;;;;;;;;11.33;10.33;;;;;22.54;39.04;101223.03;5059377;28;45281;-60
2022/08/11 05:02:48;;;;;;;;;13.33;13.33;;;;;22.49;39.20;101217.19;5035239;28;45536;-60
2022/08/11 05:05:39;;;;;;;;;12.67;12.67;;;;;22.44;39.39;101211.38;5076897;28;45322;-62
2022/08/11 05:08:10;;;;;;;;;10.00;10.00;;;;;22.42;39.73;101216.94;5075649;28;45344;-60
2022/08/11 05:10:48;;;;;;;;;13.67;12.00;;;;;22.40;39.52;101223.50;5077232;28;45410;-63
2022/08/11 05:36:45;;;;;;;;;11.33;11.33;;;;;22.37;39.58;101240.91;5079135;27;45445;-61
2022/08/11 05:56:19;;;;;;;;;13.00;10.33;;;;;22.44;39.53;101249.31;5097328;27;45476;-60
2022/08/11 05:58:53;;;;;;;;;12.00;12.00;;;;;22.44;39.61;101252.03;5097745;27;45381;-61
2022/08/11 06:01:29;;;;;;;;;14.00;12.00;;;;;22.47;39.21;101257.16;5096965;27;45478;-60
2022/08/11 06:04:15;;;;;;;;;9.67;9.67;;;;;22.48;39.64;101264.28;5097010;27;45382;-61
2022/08/11 06:07:08;;;;;;;;;14.00;14.00;;;;;22.50;39.40;101257.69;5097596;27;45263;-62
2022/08/11 06:09:34;;;;;;;;;15.33;14.00;;;;;22.49;39.66;101255.16;5097356;27;45399;-62
2022/08/11 06:12:07;;;;;;;;;12.67;11.00;;;;;22.57;39.37;101264.25;5097138;27;46004;-61
2022/08/11 06:14:34;;;;;;;;;15.33;14.00;;;;;22.57;39.39;101256.13;5096483;27;45488;-61
2022/08/11 06:17:01;;;;;;;;;14.67;14.67;;;;;22.60;39.03;101261.25;5097265;27;45339;-61
2022/08/11 06:19:38;;;;;;;;;12.33;11.00;;;;;22.61;39.37;101262.09;5097160;27;45563;-61
2022/08/11 06:22:06;;;;;;;;;16.33;11.33;;;;;22.64;39.44;101259.94;5078095;27;45422;-64
2022/08/11 06:24:35;;;;;;;;;13.67;13.67;;;;;22.67;38.93;101264.22;5078818;27;45470;-60
2022/08/11 06:27:05;;;;;;;;;14.00;11.00;;;;;22.72;38.73;101272.78;5096759;27;45523;-62
2022/08/11 06:29:32;;;;;;;;;11.33;11.33;;;;;22.73;38.87;101262.78;5096749;27;45345;-62
2022/08/11 06:32:00;;;;;;;;;13.67;12.00;;;;;22.76;39.37;101262.47;5077920;27;45431;-63
2022/08/11 06:34:51;;;;;;;;;11.00;11.00;;;;;22.81;39.00;101276.47;5095237;27;45327;-61
2022/08/11 06:37:29;;;;;;;;;8.00;8.00;;;;;22.77;38.58;101256.91;5089410;27;45410;-64
2022/08/11 06:40:07;;;;;;;;;10.00;10.00;;;;;22.88;38.58;101273.00;5057882;28;45551;-62
2022/08/11 06:42:53;;;;;;;;;14.00;13.00;;;;;22.86;38.19;101263.31;5073962;28;46559;-62
2022/08/11 06:45:27;;;;;;;;;11.00;11.00;;;;;22.95;38.06;101276.84;5076433;28;45287;-62
2022/08/11 06:47:54;;;;;;;;;17.67;12.33;;;;;23.00;38.24;101279.09;5057735;28;45354;-62
2022/08/11 06:53:11;;;;;;;;;10.00;10.00;;;;;23.12;38.17;101274.34;5075756;28;45762;-62
2022/08/11 07:01:45;;;;;;;;;14.00;12.00;;;;;23.26;37.93;101271.13;5079836;28;45389;-61
2022/08/11 07:04:14;;;;;;;;;14.67;13.67;;;;;23.30;37.84;101274.38;5077006;28;47308;-62
2022/08/11 07:15:42;;;;;;;;;17.33;12.00;;;;;23.46;36.76;101272.72;5079228;28;45658;-62
2022/08/11 07:29:37;;;;;;;;;11.50;9.00;;;;;23.85;35.54;101274.34;5064014;28;45405;-61
2022/08/11 07:32:18;;;;;;;;;11.00;9.50;;;;;23.87;35.17;101265.00;5079281;28;45232;-62
2022/08/11 07:34:54;;;;;;;;;9.33;9.33;;;;;23.97;35.25;101264.94;5078150;28;45353;-61
2022/08/11 07:37:23;;;;;;;;;7.67;7.67;;;;;24.02;34.36;101257.16;5086595;27;45514;-62
2022/08/11 07:39:50;;;;;;;;;11.75;10.00;;;;;24.09;34.88;101261.81;5099623;27;45231;-63
2022/08/11 07:42:22;;;;;;;;;10.67;10.00;;;;;24.19;34.60;101260.84;5099367;27;45227;-62
2022/08/11 07:53:03;;;;;;;;;9.33;9.33;;;;;24.41;33.85;101253.06;5099433;27;45240;-60
2022/08/11 07:55:30;;;;;;;;;8.50;8.50;;;;;24.50;33.64;101261.28;5100070;27;45300;-66
2022/08/11 08:20:15;;;;;;;;;12.25;11.00;;;;;25.03;33.10;101252.94;5098375;27;45887;-64
2022/08/11 08:22:42;;;;;;;;;10.50;9.00;;;;;25.09;32.93;101252.25;5098409;27;45423;-63
2022/08/11 08:25:08;;;;;;;;;10.50;10.50;;;;;25.16;33.47;101242.44;5098832;27;45326;-62
2022/08/11 08:27:35;;;;;;;;;11.50;9.25;;;;;25.26;32.42;101248.59;5081230;27;45629;-63
2022/08/11 08:32:47;;;;;;;;;8.25;8.00;;;;;25.48;32.40;101246.25;5098730;27;45447;-62
2022/08/11 08:35:14;;;;;;;;;9.00;9.00;;;;;25.74;33.14;101248.88;5098545;27;45374;-64
2022/08/11 08:37:39;;;;;;;;;11.25;10.00;;;;;26.23;31.90;101247.00;5087770;27;45441;-63
2022/08/11 08:40:08;;;;;;;;;10.00;8.75;;;;;26.89;31.48;101248.59;5077743;28;45413;-61
2022/08/11 08:42:40;;;;;;;;;10.00;10.00;;;;;27.49;30.04;101245.25;5077673;28;45394;-62
2022/08/11 08:45:11;;;;;;;;;9.50;9.50;;;;;28.14;29.69;101247.53;5077612;28;45318;-61
2022/08/11 08:47:41;;;;;;;;;7.00;7.00;;;;;28.71;29.49;101236.00;5077019;28;45536;-63
2022/08/11 08:50:12;;;;;;;;;10.00;8.20;;;;;29.23;28.66;101240.50;5077121;27;45389;-63
2022/08/11 08:52:41;;;;;;;;;9.60;9.60;;;;;29.75;27.82;101246.81;5059542;28;45224;-63
2022/08/11 08:55:15;;;;;;;;;10.20;9.20;;;;;30.25;27.84;101243.06;5077527;28;45417;-60
2022/08/11 08:57:42;;;;;;;;;11.20;10.80;;;;;30.67;26.33;101244.88;5077784;28;45227;-62
2022/08/11 09:00:09;;;;;;;;;9.20;8.80;;;;;31.08;26.39;101242.13;5077637;28;46291;-64
2022/08/11 09:02:35;;;;;;;;;11.20;9.00;;;;;31.52;25.42;101243.59;5077252;28;45330;-63
2022/08/11 09:05:03;;;;;;;;;8.00;8.00;;;;;31.85;26.13;101248.31;5076204;28;45404;-61
2022/08/11 09:07:29;;;;;;;;;8.00;8.00;;;;;32.23;24.71;101248.56;5077617;28;45639;-61
2022/08/11 09:09:58;;;;;;;;;5.80;5.80;;;;;32.58;24.55;101245.59;5077459;28;45211;-63
2022/08/11 09:12:30;;;;;;;;;9.00;7.00;;;;;32.89;23.44;101248.50;5076783;28;45399;-61
2022/08/11 09:14:59;;;;;;;;;7.80;7.80;;;;;33.17;24.01;101241.81;5077480;28;45401;-63
2022/08/11 09:17:27;;;;;;;;;11.20;9.00;;;;;33.54;22.44;101245.69;5077685;27;45448;-64
2022/08/11 09:20:02;;;;;;;;;8.80;8.60;;;;;33.79;22.51;101238.31;5077012;27;46597;-64
2022/08/11 09:28:03;;;;;;;;;7.00;7.00;;;;;34.63;21.14;101227.81;5077757;28;45323;-61
2022/08/11 09:30:30;;;;;;;;;8.40;8.40;;;;;34.74;21.98;101227.06;5077505;28;46130;-63
2022/08/11 09:32:59;;;;;;;;;8.80;8.00;;;;;34.88;21.52;101236.91;5077429;28;45326;-63
2022/08/11 09:35:30;;;;;;;;;7.20;7.20;;;;;35.15;21.79;101227.22;5077558;28;45347;-63
2022/08/11 09:40:45;;;;;;;;;7.60;6.40;;;;;35.59;22.06;101214.09;5081702;27;45461;-63
2022/08/11 09:46:02;;;;;;;;;39.60;30.80;;;;;36.07;19.86;101221.41;5067955;27;45343;-64
2022/08/11 09:48:38;;;;;;;;;11.40;8.00;;;;;36.14;19.94;101216.63;5079020;27;45271;-63
2022/08/11 09:51:06;;;;;;;;;6.80;6.80;;;;;36.36;19.15;101207.75;5096817;27;45795;-64
2022/08/11 09:53:36;;;;;;;;;11.20;8.00;;;;;36.53;20.11;101211.47;5097067;27;45329;-65
2022/08/11 09:58:12;;;;;;;;;6.60;5.00;;;;;36.68;18.15;101208.19;5097447;27;45289;-64
2022/08/11 09:58:51;;;;;;;;;7.00;7.00;;;;;36.54;17.60;101204.84;5096964;27;45246;-64
2022/08/11 10:01:27;;;;;;;;;6.60;5.00;;;;;36.38;17.84;101208.34;5095499;27;46192;-66
2022/08/11 10:04:09;;;;;;;;;4.80;4.80;;;;;36.35;17.71;101206.06;5095473;27;45507;-63
2022/08/11 10:09:23;;;;;;;;;8.20;7.00;;;;;36.40;18.35;101193.16;5097065;27;45663;-63
2022/08/11 10:11:58;;;;;;;;;5.40;5.40;;;;;36.32;18.61;101208.19;5096765;27;46119;-65
2022/08/11 10:17:11;;;;;;;;;7.00;7.00;;;;;35.95;19.41;101202.06;5097025;27;45424;-63
2022/08/11 10:19:38;;;;;;;;;7.80;7.00;;;;;35.77;18.27;101196.56;5097115;27;45587;-63
2022/08/11 10:27:42;;;;;;;;;7.20;6.80;;;;;34.87;18.97;101193.78;5096843;27;45395;-63
2022/08/11 10:35:37;;;;;;;;;8.40;8.40;;;;;33.64;19.43;101188.13;5099959;27;45345;-64
2022/08/11 10:38:04;;;;;;;;;6.80;6.80;;;;;33.32;20.17;101159.66;5086191;27;45414;-63
2022/08/11 10:40:31;;;;;;;;;6.00;6.00;;;;;33.10;20.43;101165.53;5078877;28;45267;-65
2022/08/11 10:43:09;;;;;;;;;12.20;9.20;;;;;33.00;20.60;101167.06;5060939;28;46346;-63
2022/08/11 10:48:24;;;;;;;;;9.00;9.00;;;;;32.63;21.88;101158.50;5064233;27;45272;-64
2022/08/11 10:59:08;;;;;;;;;8.40;6.40;;;;;31.93;20.33;101147.19;5079777;28;45361;-62
2022/08/11 11:01:37;;;;;;;;;11.20;10.00;;;;;31.88;21.22;101154.38;5080028;27;45574;-62
2022/08/11 11:04:09;;;;;;;;;8.20;8.20;;;;;31.84;21.16;101153.97;5079661;27;45306;-64
2022/08/11 11:06:44;;;;;;;;;9.60;8.40;;;;;31.75;21.91;101159.88;5078976;28;45419;-64
2022/08/11 11:09:16;;;;;;;;;7.60;6.00;;;;;31.63;21.61;101167.88;5061379;28;45336;-65
2022/08/11 11:19:58;;;;;;;;;8.20;8.20;;;;;31.60;21.77;101149.91;5079540;28;45516;-65
2022/08/11 11:22:37;;;;;;;;;10.00;10.00;;;;;31.58;21.26;101132.78;5079583;28;45255;-63
2022/08/11 11:25:23;;;;;;;;;9.00;7.60;;;;;31.65;21.59;101133.63;5079289;28;45310;-63
2022/08/11 11:28:10;;;;;;;;;5.60;5.60;;;;;31.67;21.43;101126.00;5078760;28;45275;-63
2022/08/11 11:31:05;;;;;;;;;10.00;7.20;;;;;31.76;21.14;101131.31;5079089;28;45365;-64
2022/08/11 11:33:52;;;;;;;;;9.20;9.20;;;;;31.79;21.46;101128.16;5078439;28;45636;-65
2022/08/11 11:36:52;;;;;;;;;10.00;9.60;;;;;31.82;21.89;101127.72;5078598;28;45431;-64
2022/08/11 11:39:30;;;;;;;;;9.60;9.60;;;;;31.86;21.42;101123.50;5079008;28;45461;-65
2022/08/11 11:41:59;;;;;;;;;7.80;6.80;;;;;31.85;22.11;101121.78;5078889;28;45428;-64
2022/08/11 11:44:25;;;;;;;;;7.80;7.80;;;;;31.80;21.12;101108.69;5078843;28;45609;-64
2022/08/11 11:46:52;;;;;;;;;6.20;6.20;;;;;31.86;21.49;101107.81;5078444;28;46162;-63
2022/08/11 11:49:20;;;;;;;;;7.00;7.00;;;;;31.94;21.26;101106.78;5078483;28;45248;-63
2022/08/11 11:51:51;;;;;;;;;10.00;8.80;;;;;32.06;21.67;101112.47;5078695;28;45328;-64
2022/08/11 11:54:30;;;;;;;;;8.60;8.60;;;;;32.11;22.07;101115.41;5077341;28;45659;-65
2022/08/11 12:01:14;;;;;;;;;10.40;8.80;;;;;32.18;21.47;101106.09;5078064;28;46516;-64
2022/08/11 12:02:28;;;;;;;;;9.00;7.60;;;;;32.32;21.72;101111.59;5078304;28;45344;-64
2022/08/11 12:04:54;;;;;;;;;10.00;10.00;;;;;32.34;20.64;101098.47;5078759;28;45306;-64
2022/08/11 12:10:06;;;;;;;;;7.80;7.80;;;;;32.36;21.16;101085.31;5079002;28;45475;-65
2022/08/11 12:15:18;;;;;;;;;10.00;9.60;;;;;32.48;21.54;101084.41;5063094;28;45408;-63
2022/08/11 12:17:45;;;;;;;;;8.00;8.00;;;;;32.59;20.69;101096.66;5077999;28;46352;-64
2022/08/11 12:20:13;;;;;;;;;10.00;8.20;;;;;32.66;20.73;101080.94;5078271;28;45580;-65
2022/08/11 12:28:09;;;;;;;;;9.20;9.20;;;;;32.94;20.53;101069.59;5077948;28;45390;-64
2022/08/11 12:30:35;;;;;;;;;9.75;9.75;;;;;32.99;20.53;101080.81;5078036;28;45275;-64
2022/08/11 12:33:00;;;;;;;;;10.00;10.00;;;;;33.05;21.14;101073.56;5077960;28;45323;-64
2022/08/11 12:35:26;;;;;;;;;12.75;9.00;;;;;33.10;21.46;101071.00;5078132;28;45524;-65
2022/08/11 12:37:57;;;;;;;;;8.25;8.25;;;;;33.24;19.92;101072.59;5089977;27;46022;-64
2022/08/11 12:46:05;;;;;;;;;8.00;8.00;;;;;33.43;21.10;101060.56;5099273;27;45240;-64
2022/08/11 12:54:32;;;;;;;;;8.40;8.40;;;;;33.59;19.62;101050.03;5098197;27;45424;-63
2022/08/11 13:05:34;;;;;;;;;6.20;6.20;;;;;33.84;19.42;101048.09;5098159;27;45172;-64
2022/08/11 13:08:01;;;;;;;;;8.00;8.00;;;;;33.87;20.04;101050.44;5098232;27;45218;-63
2022/08/11 13:13:13;;;;;;;;;8.20;8.20;;;;;33.92;19.51;101028.50;5097494;27;45346;-64
2022/08/11 13:15:39;;;;;;;;;9.00;7.00;;;;;34.07;19.68;101038.31;5098119;27;45389;-64
2022/08/11 13:18:06;;;;;;;;;9.00;8.00;;;;;34.14;19.83;101033.59;5097787;27;45527;-64
2022/08/11 13:20:33;;;;;;;;;7.60;7.00;;;;;34.19;19.76;101044.78;5079238;27;45399;-64
2022/08/11 13:23:00;;;;;;;;;6.40;6.40;;;;;34.17;19.45;101045.00;5096637;27;45190;-63
2022/08/11 13:25:28;;;;;;;;;8.80;8.80;;;;;34.06;19.35;101025.59;5097929;27;45227;-61
2022/08/11 13:27:56;;;;;;;;;8.60;7.60;;;;;34.16;19.12;101034.19;5096828;27;45492;-63
2022/08/11 13:33:18;;;;;;;;;9.80;8.60;;;;;34.36;18.99;101039.47;5098064;27;45375;-64
2022/08/11 13:35:50;;;;;;;;;9.60;8.80;;;;;34.46;19.35;101043.41;5097657;27;45196;-62
2022/08/11 13:38:20;;;;;;;;;9.20;9.20;;;;;34.55;18.47;101036.47;5081864;27;45461;-63
2022/08/11 13:40:48;;;;;;;;;9.60;8.20;;;;;34.51;18.17;101026.97;5076046;28;46360;-63
2022/08/11 13:43:14;;;;;;;;;10.00;10.00;;;;;34.55;18.49;101030.97;5077015;28;45469;-63
2022/08/11 13:45:42;;;;;;;;;8.00;8.00;;;;;34.68;19.04;101029.09;5059262;28;45326;-63
2022/08/11 13:48:09;;;;;;;;;12.40;11.20;;;;;34.71;17.98;101006.50;5076948;28;45564;-62
2022/08/11 13:53:25;;;;;;;;;9.60;9.60;;;;;34.60;18.56;101033.84;5076733;28;45260;-63
2022/08/11 13:55:51;;;;;;;;;9.60;9.60;;;;;34.70;19.04;101015.88;5058753;28;45347;-62
2022/08/11 13:58:19;;;;;;;;;11.00;10.40;;;;;34.83;17.89;101026.72;5058937;28;45418;-63
2022/08/11 14:00:48;;;;;;;;;8.20;8.20;;;;;34.82;18.60;101028.66;5076265;28;45274;-64
2022/08/11 14:03:18;;;;;;;;;7.40;7.40;;;;;34.85;18.59;101030.94;5076765;28;45358;-62
2022/08/11 14:05:50;;;;;;;;;8.60;7.00;;;;;34.89;18.53;101023.88;5076744;28;45331;-62
2022/08/11 14:08:23;;;;;;;;;10.80;7.60;;;;;34.95;19.03;101027.66;5075732;28;45386;-62
2022/08/11 14:13:36;;;;;;;;;9.40;8.00;;;;;35.01;18.27;101029.44;5058786;28;47482;-63
2022/08/11 14:13:40;;;;;;;;;9.00;9.00;;;;;35.04;18.09;101023.47;5076462;28;45347;-63
2022/08/11 14:16:11;;;;;;;;;9.00;9.00;;;;;35.04;19.02;101012.41;5076991;28;45289;-66
2022/08/11 14:18:44;;;;;;;;;7.40;7.40;;;;;35.08;19.34;101019.16;5076773;28;45392;-61
2022/08/11 14:23:59;;;;;;;;;9.60;8.40;;;;;35.06;18.59;100990.06;5076534;28;45280;-62
2022/08/11 14:26:26;;;;;;;;;9.60;8.20;;;;;35.26;18.40;101009.06;5058928;28;45352;-62
2022/08/11 14:29:13;;;;;;;;;8.40;8.40;;;;;35.26;18.77;100998.00;5058642;28;45367;-63
2022/08/11 14:32:01;;;;;;;;;9.20;9.20;;;;;35.30;18.12;100996.47;5076500;28;45437;-62
2022/08/11 14:34:29;;;;;;;;;9.80;9.80;;;;;35.28;18.04;100987.53;5075442;28;45368;-62
2022/08/11 14:36:57;;;;;;;;;6.80;6.80;;;;;35.19;18.68;100987.06;5080724;27;45267;-63
2022/08/11 14:39:25;;;;;;;;;8.20;8.20;;;;;35.16;19.13;100988.41;5097367;27;45497;-61
2022/08/11 14:47:44;;;;;;;;;9.20;8.20;;;;;35.40;18.13;100972.66;5096918;27;45413;-63
2022/08/11 14:50:17;;;;;;;;;8.40;8.40;;;;;35.47;17.89;100969.78;5094893;27;45495;-61
2022/08/11 14:52:50;;;;;;;;;9.00;8.00;;;;;35.58;17.87;100980.03;5096527;27;46032;-62
2022/08/11 14:58:06;;;;;;;;;8.80;8.80;;;;;35.58;18.08;100974.50;5096568;27;45242;-64
2022/08/11 15:00:32;;;;;;;;;8.60;7.20;;;;;35.58;17.57;100963.41;5096404;27;45289;-62
2022/08/11 15:03:11;;;;;;;;;11.00;10.40;;;;;35.61;17.92;100962.94;5095323;27;45382;-62
2022/08/11 15:05:50;;;;;;;;;10.00;9.00;;;;;35.59;16.96;100959.56;5095981;27;45827;-62
2022/08/11 15:08:17;;;;;;;;;9.40;7.80;;;;;35.54;17.42;100951.13;5096425;27;45303;-62
2022/08/11 15:10:44;;;;;;;;;8.00;8.00;;;;;35.52;17.57;100946.94;5096630;27;45414;-62
2022/08/11 15:13:15;;;;;;;;;10.20;10.20;;;;;35.50;17.99;100933.34;5095879;27;46698;-62
2022/08/11 15:18:25;;;;;;;;;8.80;8.60;;;;;35.47;17.17;100939.38;5096155;27;45333;-63
2022/08/11 15:37:34;;;;;;;;;9.40;8.20;;;;;35.31;17.90;100937.31;5089818;27;45487;-62
2022/08/11 15:45:52;;;;;;;;;10.20;10.20;;;;;35.17;18.10;100901.63;5079070;28;45755;-63
2022/08/11 15:48:45;;;;;;;;;13.00;10.20;;;;;35.18;18.37;100930.94;5078645;28;45530;-64
2022/08/11 15:51:16;;;;;;;;;8.80;8.80;;;;;35.17;17.42;100926.50;5065539;28;45368;-62
2022/08/11 15:53:48;;;;;;;;;9.80;9.20;;;;;35.17;17.43;100929.25;5078921;28;45303;-62
2022/08/11 15:56:15;;;;;;;;;10.80;9.40;;;;;35.12;17.90;100926.34;5078294;28;46547;-62
2022/08/11 16:04:23;;;;;;;;;11.20;9.80;;;;;34.97;17.71;100901.13;5079277;28;45371;-61
2022/08/11 16:06:49;;;;;;;;;9.00;9.00;;;;;34.97;17.98;100917.69;5059270;28;45390;-64
2022/08/11 16:09:19;;;;;;;;;9.75;9.75;;;;;34.89;18.25;100921.63;5078402;28;45339;-60
2022/08/11 16:11:46;;;;;;;;;10.60;9.00;;;;;34.75;18.10;100919.31;5078442;28;45327;-61
2022/08/11 16:17:00;;;;;;;;;5.60;5.00;;;;;34.38;18.16;100913.94;5085706;27;45482;-62
2022/08/11 16:19:34;;;;;;;;;9.20;9.20;;;;;34.39;18.40;100917.56;5089352;27;45628;-62
2022/08/11 16:22:06;;;;;;;;;8.20;8.20;;;;;34.35;18.58;100922.66;5084847;27;45362;-63
2022/08/11 16:24:34;;;;;;;;;8.20;7.80;;;;;34.35;18.96;100925.41;5078118;28;45338;-62
2022/08/11 16:27:02;;;;;;;;;9.00;9.00;;;;;34.40;18.70;100922.84;5097383;27;45455;-62
2022/08/11 16:29:30;;;;;;;;;8.80;8.80;;;;;34.21;18.39;100897.16;5079984;27;45349;-62
2022/08/11 16:32:15;;;;;;;;;10.60;10.20;;;;;34.25;18.90;100914.09;5097471;27;45318;-63